createdAt,value
2022-08-16T00:00:25.761Z,33.84
2022-08-16T00:05:28.495Z,34.36
2022-08-16T00:10:37.231Z,35.49
2022-08-16T00:15:51.561Z,36.55
2022-08-16T00:20:56.180Z,35.53
2022-08-16T00:26:36.160Z,36.07
2022-08-16T00:31:24.119Z,36.31
2022-08-16T00:36:26.660Z,37.17
2022-08-16T00:41:29.641Z,36.56
2022-08-16T00:46:35.610Z,36.39
2022-08-16T00:51:38.656Z,35.88
2022-08-16T00:56:58.420Z,36.19
2022-08-16T01:02:30.913Z,34.91
2022-08-16T01:07:26.390Z,33.79
2022-08-16T01:12:48.578Z,33.18
2022-08-16T01:17:55.971Z,32.67
2022-08-16T01:23:14.546Z,32.19
2022-08-16T01:28:20.526Z,33.31
2022-08-16T01:33:23.613Z,35.40
2022-08-16T01:38:32.341Z,35.28
2022-08-16T01:43:37.717Z,34.78
2022-08-16T01:48:40.350Z,36.53
2022-08-16T01:53:54.632Z,36.65
2022-08-16T01:59:07.716Z,38.52
2022-08-16T02:04:49.302Z,38.86
2022-08-16T02:09:41.926Z,38.59
2022-08-16T02:14:44.875Z,40.04
2022-08-16T02:19:59.113Z,43.64
2022-08-16T02:25:10.924Z,46.41
2022-08-16T02:30:35.777Z,45.35
2022-08-16T02:35:53.969Z,44.20
2022-08-16T02:41:02.704Z,43.76
2022-08-16T02:46:12.009Z,43.29
2022-08-16T02:51:14.080Z,43.76
2022-08-16T02:56:18.640Z,43.00
2022-08-16T03:01:36.404Z,43.19
2022-08-16T03:06:50.483Z,43.40
2022-08-16T03:12:10.930Z,43.32
2022-08-16T03:17:19.592Z,41.61
2022-08-16T03:22:30.525Z,42.00
2022-08-16T03:27:41.129Z,41.16
2022-08-16T03:32:51.630Z,40.23
2022-08-16T03:38:02.753Z,40.01
2022-08-16T03:43:20.624Z,40.35
2022-08-16T03:48:36.716Z,40.62
2022-08-16T03:53:57.708Z,40.51
2022-08-16T03:59:06.341Z,38.56
2022-08-16T04:04:30.929Z,36.30
2022-08-16T04:09:35.929Z,34.76
2022-08-16T04:14:46.882Z,33.45
2022-08-16T04:19:51.803Z,32.51
2022-08-16T04:24:59.320Z,31.91
2022-08-16T04:30:11.014Z,30.43
2022-08-16T04:35:22.849Z,29.15
2022-08-16T04:40:27.418Z,27.50
2022-08-16T04:45:35.552Z,26.14
2022-08-16T04:50:51.141Z,26.12
2022-08-16T04:55:56.512Z,24.30
2022-08-16T05:01:01.034Z,22.43
2022-08-16T05:06:07.034Z,19.16
2022-08-16T05:11:13.097Z,16.96
2022-08-16T05:16:27.561Z,15.73
2022-08-16T05:21:42.206Z,13.29
2022-08-16T05:26:51.256Z,14.28
2022-08-16T05:31:53.861Z,12.81
2022-08-16T05:36:58.745Z,11.53
2022-08-16T05:42:09.168Z,9.18
2022-08-16T05:47:13.983Z,8.71
2022-08-16T05:52:20.862Z,8.04
2022-08-16T05:57:24.458Z,7.82
2022-08-16T06:02:33.557Z,6.30
2022-08-16T06:07:38.434Z,4.02
2022-08-16T06:12:52.681Z,1.81
2022-08-16T06:17:59.283Z,2.04
2022-08-16T06:23:11.627Z,0.07
2022-08-16T06:28:35.658Z,1.49
2022-08-16T06:33:42.354Z,0.39
2022-08-16T06:38:55.673Z,-0.80
2022-08-16T06:44:20.943Z,-2.30
2022-08-16T06:49:28.500Z,-3.43
2022-08-16T06:54:34.617Z,-3.44
2022-08-16T06:59:52.110Z,-4.34
2022-08-16T07:04:58.169Z,-5.96
2022-08-16T07:10:00.557Z,-5.05
2022-08-16T07:15:17.076Z,118.63
2022-08-16T07:20:35.684Z,114.49
2022-08-16T07:25:46.420Z,116.53
2022-08-16T07:30:48.993Z,115.84
2022-08-16T07:36:21.902Z,118.20
2022-08-16T07:41:25.597Z,115.37
2022-08-16T07:46:39.538Z,114.94
2022-08-16T07:51:56.764Z,111.45
2022-08-16T07:57:03.988Z,110.61
2022-08-16T08:02:11.885Z,109.15
2022-08-16T08:07:16.773Z,109.85
2022-08-16T08:12:32.628Z,110.03
2022-08-16T08:17:43.976Z,111.31
2022-08-16T08:22:54.110Z,109.36
2022-08-16T08:28:04.949Z,109.81
2022-08-16T08:33:13.878Z,110.49
2022-08-16T08:38:44.010Z,110.87
2022-08-16T08:43:43.023Z,109.52
2022-08-16T08:49:00.037Z,109.30
2022-08-16T08:54:09.761Z,108.42
2022-08-16T08:59:20.337Z,106.38
2022-08-16T09:04:28.306Z,104.85
2022-08-16T09:09:33.740Z,104.12
2022-08-16T09:14:49.524Z,105.02
2022-08-16T09:19:57.235Z,104.89
2022-08-16T09:25:10.107Z,105.05
2022-08-16T09:30:33.655Z,105.27
2022-08-16T09:35:38.842Z,104.96
2022-08-16T09:40:44.054Z,106.65
2022-08-16T09:45:46.950Z,105.90
2022-08-16T09:50:50.801Z,107.13
2022-08-16T09:55:59.141Z,107.89
2022-08-16T10:01:01.200Z,106.72
2022-08-16T10:06:03.338Z,104.77
2022-08-16T10:11:24.878Z,105.87
2022-08-16T10:16:27.120Z,106.59
2022-08-16T10:21:32.129Z,107.04
2022-08-16T10:27:16.445Z,110.42
2022-08-16T10:31:57.755Z,111.86
2022-08-16T10:37:01.227Z,112.86
2022-08-16T10:42:04.258Z,115.47
2022-08-16T10:47:06.454Z,115.40
2022-08-16T10:52:18.749Z,112.39
2022-08-16T10:57:24.550Z,113.08
2022-08-16T11:02:57.694Z,113.39
2022-08-16T11:07:52.346Z,112.26
2022-08-16T11:12:56.528Z,109.65
2022-08-16T11:23:21.464Z,109.99
2022-08-16T11:33:55.324Z,108.53
2022-08-16T11:39:00.382Z,108.44
2022-08-16T11:44:03.292Z,109.95
2022-08-16T11:49:12.701Z,110.93
2022-08-16T11:54:21.250Z,110.93
2022-08-16T11:59:25.360Z,109.14
2022-08-16T12:04:31.467Z,112.20
2022-08-16T12:09:34.511Z,110.26
2022-08-16T12:14:42.109Z,107.57
2022-08-16T12:19:48.822Z,106.85
2022-08-16T12:24:53.583Z,105.85
2022-08-16T12:29:58.303Z,100.73
2022-08-16T12:35:01.831Z,100.36
2022-08-16T12:40:07.456Z,96.54
2022-08-16T12:45:29.062Z,94.20
2022-08-16T12:50:32.972Z,91.34
2022-08-16T12:55:41.625Z,91.69
2022-08-16T13:00:44.507Z,94.20
2022-08-16T13:05:53.471Z,97.16
2022-08-16T13:10:58.865Z,98.90
2022-08-16T13:16:15.313Z,98.52
2022-08-16T13:21:23.743Z,100.60
2022-08-16T13:26:27.855Z,100.80
2022-08-16T13:31:30.161Z,98.45
2022-08-16T13:36:48.827Z,100.66
2022-08-16T13:41:54.492Z,102.80
2022-08-16T13:46:57.409Z,97.71
2022-08-16T13:51:59.487Z,99.38
2022-08-16T13:57:01.939Z,99.05
2022-08-16T14:02:08.782Z,97.52
2022-08-16T14:07:24.318Z,95.97
2022-08-16T14:12:31.474Z,97.32
2022-08-16T14:17:38.425Z,97.10
2022-08-16T14:22:57.092Z,97.81
2022-08-16T14:27:59.522Z,97.40
2022-08-16T14:33:04.366Z,97.33
2022-08-16T14:38:09.063Z,98.23
2022-08-16T14:43:11.007Z,98.10
2022-08-16T14:48:25.106Z,96.36
2022-08-16T14:53:29.239Z,96.31
2022-08-16T14:58:38.104Z,96.33
2022-08-16T15:03:44.752Z,95.85
2022-08-16T15:08:47.213Z,95.46
2022-08-16T15:13:49.932Z,95.30
2022-08-16T15:18:53.889Z,96.62
2022-08-16T15:23:57.133Z,96.02
2022-08-16T15:28:59.168Z,93.69
2022-08-16T15:34:02.192Z,93.04
2022-08-16T15:39:30.457Z,93.49
2022-08-16T15:44:26.944Z,93.22
2022-08-16T15:49:37.688Z,93.63
2022-08-16T15:54:53.102Z,92.49
2022-08-16T16:00:09.907Z,92.46
2022-08-16T16:05:19.664Z,93.35
2022-08-16T16:10:22.011Z,94.16
2022-08-16T16:15:34.971Z,93.93
2022-08-16T16:20:47.659Z,93.66
2022-08-16T16:25:50.231Z,93.66
2022-08-16T16:30:57.007Z,94.27
2022-08-16T16:36:01.103Z,94.85
2022-08-16T16:41:08.892Z,97.24
2022-08-16T16:46:41.091Z,97.23
2022-08-16T16:51:40.842Z,96.36
2022-08-16T16:56:49.557Z,96.59
2022-08-16T17:01:59.508Z,96.72
2022-08-16T17:07:15.535Z,99.16
2022-08-16T17:12:46.332Z,98.53
2022-08-16T17:17:59.654Z,102.24
2022-08-16T17:23:04.178Z,102.42
2022-08-16T17:28:59.800Z,103.44
2022-08-16T17:33:37.164Z,106.22
2022-08-16T17:38:52.342Z,107.30
2022-08-16T17:43:55.700Z,109.73
2022-08-16T17:48:57.861Z,111.39
2022-08-16T17:54:00.095Z,110.89
2022-08-16T17:59:02.301Z,111.45
2022-08-16T18:04:09.639Z,112.83
2022-08-16T18:09:14.899Z,113.18
2022-08-16T18:14:18.959Z,113.91
2022-08-16T18:19:40.943Z,113.77
2022-08-16T18:24:43.161Z,114.21
2022-08-16T18:29:46.545Z,114.12
2022-08-16T18:34:54.485Z,-4.95
2022-08-16T18:39:58.084Z,-4.73
2022-08-16T18:45:02.335Z,-3.66
2022-08-16T18:50:04.733Z,-3.24
2022-08-16T18:55:14.484Z,-1.49
2022-08-16T19:00:19.747Z,-0.29
2022-08-16T19:05:25.277Z,1.77
2022-08-16T19:10:27.369Z,2.46
2022-08-16T19:15:29.694Z,2.88
2022-08-16T19:20:33.108Z,3.45
2022-08-16T19:25:46.861Z,4.73
2022-08-16T19:30:50.836Z,5.41
2022-08-16T19:35:53.108Z,2.54
2022-08-16T19:40:55.384Z,-0.67
2022-08-16T19:45:57.511Z,-0.90
2022-08-16T19:50:59.655Z,-0.63
2022-08-16T19:56:01.649Z,-0.85
2022-08-16T20:01:06.295Z,4.33
2022-08-16T20:06:08.516Z,5.53
2022-08-16T20:11:13.371Z,7.57
2022-08-16T20:16:16.374Z,2.61
2022-08-16T20:21:19.250Z,2.58
2022-08-16T20:26:27.176Z,1.88
2022-08-16T20:31:29.250Z,2.42
2022-08-16T20:36:31.247Z,2.45
2022-08-16T20:41:33.759Z,1.99
2022-08-16T20:46:39.012Z,2.99
2022-08-16T20:51:46.928Z,4.30
2022-08-16T20:56:53.040Z,3.54
2022-08-16T21:01:56.755Z,5.59
2022-08-16T21:06:59.388Z,5.39
2022-08-16T21:12:05.312Z,5.04
2022-08-16T21:17:08.608Z,5.87
2022-08-16T21:22:16.891Z,7.44
2022-08-16T21:27:19.783Z,7.34
2022-08-16T21:32:34.910Z,7.24
2022-08-16T21:37:38.867Z,8.37
2022-08-16T21:42:42.545Z,8.22
2022-08-16T21:47:44.780Z,8.34
2022-08-16T21:52:46.745Z,9.91
2022-08-16T21:57:48.705Z,11.17
2022-08-16T22:02:57.727Z,10.81
2022-08-16T22:08:01.677Z,10.52
2022-08-16T22:13:05.569Z,8.85
2022-08-16T22:18:07.709Z,8.88
2022-08-16T22:23:19.090Z,10.48
2022-08-16T22:28:22.646Z,9.57
2022-08-16T22:33:27.134Z,9.73
2022-08-16T22:38:56.285Z,12.52
2022-08-16T22:43:52.396Z,15.01
2022-08-16T22:48:54.661Z,14.17
2022-08-16T22:53:57.679Z,13.32
2022-08-16T22:59:00.221Z,12.71
2022-08-16T23:04:02.477Z,11.75
2022-08-16T23:09:04.743Z,11.77
2022-08-16T23:14:06.772Z,12.07
2022-08-16T23:19:12.281Z,12.17
2022-08-16T23:24:15.805Z,13.08
2022-08-16T23:29:24.109Z,12.91
2022-08-16T23:34:28.940Z,14.70
2022-08-16T23:39:31.429Z,17.78
2022-08-16T23:44:41.933Z,17.86
2022-08-16T23:50:03.151Z,17.32
2022-08-16T23:55:06.518Z,17.94
